Time;durP1;ratioP1;P1;durP2;ratioP2;P2;SDS_P1;SDS_P2;PMS_P1;PMS_P2;Temp;Humidity;BMP_temperature;BMP_pressure;BME280_temperature;BME280_humidity;BME280_pressure;Samples;Min_cycle;Max_cycle;Signal;HPM_P1;HPM_P2
2022/04/14 00:01:46;;;;;;;6.87;6.27;;;;;;;;;;5065815;28;20210;-69
2022/04/14 00:04:13;;;;;;;6.33;5.73;;;;;;;;;;5072501;28;20221;-68
2022/04/14 00:06:40;;;;;;;6.77;6.17;;;;;;;;;;5073633;28;20216;-68
2022/04/14 00:09:07;;;;;;;6.83;6.17;;;;;;;;;;5067934;28;20532;-69
2022/04/14 00:11:34;;;;;;;6.13;5.53;;;;;;;;;;5068988;28;20251;-68
2022/04/14 00:14:01;;;;;;;6.20;5.70;;;;;;;;;;5066440;28;20859;-68
2022/04/14 00:16:29;;;;;;;6.67;6.07;;;;;;;;;;5076484;28;20193;-68
2022/04/14 00:18:56;;;;;;;6.50;5.90;;;;;;;;;;5068935;28;20197;-68
2022/04/14 00:21:23;;;;;;;5.87;5.37;;;;;;;;;;5046320;28;20278;-67
2022/04/14 00:23:50;;;;;;;6.60;6.00;;;;;;;;;;5048329;28;20189;-69
2022/04/14 00:26:17;;;;;;;6.20;5.70;;;;;;;;;;5046125;28;20220;-69
2022/04/14 00:28:46;;;;;;;6.13;5.63;;;;;;;;;;5054307;28;20209;-69
2022/04/14 00:31:13;;;;;;;6.13;5.60;;;;;;;;;;5074011;28;20197;-68
2022/04/14 00:33:40;;;;;;;6.83;6.23;;;;;;;;;;5026355;28;20207;-68
2022/04/14 00:36:07;;;;;;;6.03;5.50;;;;;;;;;;5064201;28;20220;-68
2022/04/14 00:38:34;;;;;;;6.37;5.77;;;;;;;;;;5033746;28;20190;-68
2022/04/14 00:41:01;;;;;;;5.97;5.47;;;;;;;;;;5068135;28;20196;-68
2022/04/14 00:43:30;;;;;;;6.33;5.83;;;;;;;;;;5068632;28;20558;-69
2022/04/14 00:45:57;;;;;;;6.77;6.17;;;;;;;;;;5062116;28;20632;-68
2022/04/14 00:48:25;;;;;;;6.47;5.87;;;;;;;;;;5070803;28;20200;-68
2022/04/14 00:50:52;;;;;;;6.97;6.37;;;;;;;;;;5068157;28;20186;-68
2022/04/14 00:53:20;;;;;;;7.57;5.73;;;;;;;;;;5050194;28;20209;-68
2022/04/14 00:55:47;;;;;;;6.83;6.07;;;;;;;;;;5061442;28;20281;-68
2022/04/14 00:58:14;;;;;;;6.53;5.93;;;;;;;;;;5075962;28;20190;-67
2022/04/14 01:00:41;;;;;;;6.30;5.73;;;;;;;;;;5072709;28;20603;-68
2022/04/14 01:03:10;;;;;;;6.40;5.80;;;;;;;;;;5070231;28;20205;-68
2022/04/14 01:05:37;;;;;;;6.17;5.67;;;;;;;;;;5057660;28;20217;-68
2022/04/14 01:08:05;;;;;;;6.60;6.00;;;;;;;;;;5062289;28;20213;-68
2022/04/14 01:10:32;;;;;;;6.27;5.77;;;;;;;;;;5067662;28;20208;-69
2022/04/14 01:13:01;;;;;;;6.17;5.63;;;;;;;;;;5068026;28;20279;-68
2022/04/14 01:15:29;;;;;;;6.60;6.00;;;;;;;;;;5032655;28;20259;-68
2022/04/14 01:17:56;;;;;;;5.83;5.37;;;;;;;;;;5060150;28;20201;-68
2022/04/14 01:20:23;;;;;;;6.23;5.73;;;;;;;;;;5063757;28;20222;-68
2022/04/14 01:22:56;;;;;;;6.27;5.73;;;;;;;;;;5066531;28;20221;-68
2022/04/14 01:25:25;;;;;;;7.40;5.90;;;;;;;;;;5066897;28;20285;-69
2022/04/14 01:27:52;;;;;;;6.30;5.80;;;;;;;;;;5069895;28;20194;-69
2022/04/14 01:30:19;;;;;;;6.73;6.13;;;;;;;;;;5067054;28;20194;-69
2022/04/14 01:32:47;;;;;;;6.43;5.83;;;;;;;;;;5063871;28;20209;-68
2022/04/14 01:35:14;;;;;;;6.60;5.47;;;;;;;;;;5066068;28;20639;-69
2022/04/14 01:37:41;;;;;;;5.87;5.37;;;;;;;;;;5063894;28;20282;-68
2022/04/14 01:40:09;;;;;;;6.93;6.13;;;;;;;;;;5067037;28;20202;-69
2022/04/14 01:42:36;;;;;;;6.17;5.67;;;;;;;;;;5069998;28;20230;-69
2022/04/14 01:45:06;;;;;;;6.73;6.20;;;;;;;;;;5044976;28;20646;-69
2022/04/14 01:47:33;;;;;;;6.13;5.53;;;;;;;;;;5067320;28;20193;-68
2022/04/14 01:50:00;;;;;;;6.40;5.80;;;;;;;;;;5058926;28;20198;-68
2022/04/14 01:52:27;;;;;;;5.80;5.30;;;;;;;;;;5060131;28;20202;-68
2022/04/14 01:54:54;;;;;;;6.27;5.77;;;;;;;;;;5066045;28;20209;-68
2022/04/14 01:57:21;;;;;;;6.10;5.50;;;;;;;;;;5073912;28;20232;-68
2022/04/14 01:59:48;;;;;;;6.03;5.53;;;;;;;;;;5045692;28;20271;-68
2022/04/14 02:02:15;;;;;;;6.50;6.00;;;;;;;;;;5071944;28;20220;-68
2022/04/14 02:04:43;;;;;;;6.80;6.20;;;;;;;;;;5050945;28;20241;-69
2022/04/14 02:07:10;;;;;;;6.07;5.47;;;;;;;;;;5066738;28;20604;-68
2022/04/14 02:09:38;;;;;;;6.47;5.87;;;;;;;;;;5060769;28;20221;-68
2022/04/14 02:12:05;;;;;;;5.70;5.20;;;;;;;;;;5047899;28;20710;-68
2022/04/14 02:14:32;;;;;;;5.83;5.17;;;;;;;;;;5066306;28;20198;-69
2022/04/14 02:16:59;;;;;;;6.43;5.93;;;;;;;;;;5066061;28;20209;-68
2022/04/14 02:19:26;;;;;;;6.43;5.87;;;;;;;;;;5066362;28;20242;-68
2022/04/14 02:21:54;;;;;;;5.77;5.17;;;;;;;;;;5060574;28;20217;-68
2022/04/14 02:24:22;;;;;;;5.60;5.10;;;;;;;;;;5065369;28;20194;-68
2022/04/14 02:26:49;;;;;;;7.57;6.37;;;;;;;;;;5066311;28;20201;-69
2022/04/14 02:29:17;;;;;;;6.53;5.70;;;;;;;;;;5066272;28;20255;-69
2022/04/14 02:31:44;;;;;;;5.80;5.30;;;;;;;;;;5060141;28;20197;-68
2022/04/14 02:34:11;;;;;;;6.60;6.00;;;;;;;;;;5066007;28;20693;-68
2022/04/14 02:36:38;;;;;;;6.73;6.07;;;;;;;;;;5065618;28;20197;-68
2022/04/14 02:39:05;;;;;;;6.03;5.40;;;;;;;;;;5068085;28;20642;-68
2022/04/14 02:41:32;;;;;;;6.03;5.53;;;;;;;;;;5066799;28;20193;-68
2022/04/14 02:43:59;;;;;;;6.13;5.63;;;;;;;;;;5069991;28;20252;-68
2022/04/14 02:46:27;;;;;;;5.90;5.40;;;;;;;;;;5065566;28;20213;-68
2022/04/14 02:48:54;;;;;;;5.77;5.27;;;;;;;;;;5066313;28;20200;-68
2022/04/14 02:51:21;;;;;;;6.13;5.53;;;;;;;;;;5065175;28;20201;-68
2022/04/14 02:53:48;;;;;;;5.93;5.43;;;;;;;;;;5067494;28;20190;-68
2022/04/14 02:56:15;;;;;;;6.40;5.90;;;;;;;;;;5062120;28;20213;-68
2022/04/14 02:58:43;;;;;;;5.93;5.40;;;;;;;;;;5067206;28;20194;-68
2022/04/14 03:01:10;;;;;;;5.33;4.90;;;;;;;;;;5066281;28;20182;-68
2022/04/14 03:03:37;;;;;;;5.90;5.40;;;;;;;;;;5063998;28;20217;-68
2022/04/14 03:06:05;;;;;;;6.00;5.40;;;;;;;;;;5064267;28;20270;-68
2022/04/14 03:08:32;;;;;;;6.40;5.80;;;;;;;;;;5063679;28;20685;-69
2022/04/14 03:10:59;;;;;;;6.23;5.73;;;;;;;;;;5070597;28;20184;-68
2022/04/14 03:13:28;;;;;;;5.73;5.33;;;;;;;;;;5077713;28;20211;-68
2022/04/14 03:15:55;;;;;;;5.70;5.30;;;;;;;;;;5066216;28;20228;-68
2022/04/14 03:18:22;;;;;;;5.77;5.17;;;;;;;;;;5055675;28;20228;-68
2022/04/14 03:20:49;;;;;;;5.90;5.37;;;;;;;;;;5048033;28;20286;-68
2022/04/14 03:23:16;;;;;;;6.10;5.50;;;;;;;;;;5069287;28;20226;-67
2022/04/14 03:25:45;;;;;;;6.07;5.57;;;;;;;;;;5065429;28;20206;-68
2022/04/14 03:28:12;;;;;;;5.40;4.90;;;;;;;;;;5065979;28;20190;-68
2022/04/14 03:30:44;;;;;;;6.00;5.50;;;;;;;;;;5070100;28;20197;-68
2022/04/14 03:33:15;;;;;;;5.90;5.40;;;;;;;;;;5067042;28;20213;-69
2022/04/14 03:35:42;;;;;;;6.07;5.57;;;;;;;;;;5066117;28;20700;-68
2022/04/14 03:38:09;;;;;;;5.13;4.63;;;;;;;;;;5072563;28;20556;-68
2022/04/14 03:40:56;;;;;;;5.40;4.90;;;;;;;;;;5071753;28;20189;-68
2022/04/14 03:43:23;;;;;;;5.60;5.10;;;;;;;;;;5068960;28;20221;-68
2022/04/14 03:45:51;;;;;;;5.93;5.43;;;;;;;;;;5061815;28;20244;-68
2022/04/14 03:48:18;;;;;;;4.97;4.53;;;;;;;;;;5062835;28;20209;-67
2022/04/14 03:50:45;;;;;;;5.70;5.20;;;;;;;;;;5062144;28;20206;-69
2022/04/14 03:53:12;;;;;;;5.87;5.23;;;;;;;;;;5068554;28;20262;-68
2022/04/14 03:55:39;;;;;;;6.10;5.50;;;;;;;;;;5058908;28;20182;-69
2022/04/14 03:58:06;;;;;;;5.80;5.20;;;;;;;;;;5069165;28;20574;-68
2022/04/14 04:00:33;;;;;;;5.77;5.27;;;;;;;;;;5050441;28;20198;-68
2022/04/14 04:03:01;;;;;;;6.00;5.37;;;;;;;;;;5068187;28;20232;-69
2022/04/14 04:05:28;;;;;;;6.90;6.00;;;;;;;;;;5068547;28;20333;-68
2022/04/14 04:07:55;;;;;;;5.50;5.00;;;;;;;;;;5062925;28;20194;-68
2022/04/14 04:10:22;;;;;;;6.07;5.47;;;;;;;;;;5068603;28;20695;-68
2022/04/14 04:12:50;;;;;;;5.50;5.10;;;;;;;;;;5050555;28;20205;-68
2022/04/14 04:15:17;;;;;;;5.60;5.10;;;;;;;;;;5067549;28;20236;-68
2022/04/14 04:17:46;;;;;;;5.20;4.80;;;;;;;;;;5066051;28;20871;-68
2022/04/14 04:20:13;;;;;;;6.50;5.23;;;;;;;;;;5055059;28;20274;-68
2022/04/14 04:22:40;;;;;;;7.87;4.90;;;;;;;;;;5068734;28;20275;-67
2022/04/14 04:25:08;;;;;;;5.40;4.90;;;;;;;;;;5068465;28;20643;-68
2022/04/14 04:27:36;;;;;;;4.43;4.13;;;;;;;;;;5067963;28;20190;-68
2022/04/14 04:30:07;;;;;;;5.83;5.20;;;;;;;;;;5066761;28;20200;-67
2022/04/14 04:32:39;;;;;;;5.10;4.67;;;;;;;;;;5070909;28;20249;-67
2022/04/14 04:35:06;;;;;;;5.20;4.70;;;;;;;;;;5071086;28;20193;-66
2022/04/14 04:37:35;;;;;;;5.17;4.77;;;;;;;;;;5070176;28;20204;-68
2022/04/14 04:40:06;;;;;;;5.27;4.50;;;;;;;;;;5066206;28;20251;-68
2022/04/14 04:42:37;;;;;;;5.63;5.13;;;;;;;;;;5071713;28;20210;-68
2022/04/14 04:45:09;;;;;;;5.43;4.93;;;;;;;;;;5075863;28;20248;-68
2022/04/14 04:47:39;;;;;;;5.30;4.90;;;;;;;;;;5070646;28;20205;-68
2022/04/14 04:50:12;;;;;;;5.33;4.83;;;;;;;;;;5051549;28;20205;-67
2022/04/14 04:52:44;;;;;;;5.40;5.00;;;;;;;;;;5068565;28;20274;-68
2022/04/14 04:55:15;;;;;;;5.50;5.00;;;;;;;;;;5067324;28;20228;-67
2022/04/14 04:57:44;;;;;;;5.53;5.13;;;;;;;;;;5060776;28;20718;-68
2022/04/14 05:00:17;;;;;;;6.00;5.37;;;;;;;;;;5069741;28;20194;-67
2022/04/14 05:02:47;;;;;;;5.73;5.23;;;;;;;;;;5066584;28;20225;-69
2022/04/14 05:05:16;;;;;;;5.80;5.30;;;;;;;;;;5052515;28;20237;-68
2022/04/14 05:07:47;;;;;;;6.30;5.70;;;;;;;;;;5043559;28;20194;-68
2022/04/14 05:10:18;;;;;;;7.20;6.50;;;;;;;;;;5067758;28;20190;-69
2022/04/14 05:12:45;;;;;;;6.50;5.90;;;;;;;;;;5067477;28;20278;-68
2022/04/14 05:15:13;;;;;;;8.17;7.40;;;;;;;;;;5074622;28;20198;-69
2022/04/14 05:17:40;;;;;;;7.20;6.50;;;;;;;;;;5064950;28;20255;-69
2022/04/14 05:20:07;;;;;;;12.20;7.80;;;;;;;;;;5068692;28;20206;-68
2022/04/14 05:22:35;;;;;;;16.30;9.20;;;;;;;;;;5066813;28;20201;-69
2022/04/14 05:25:02;;;;;;;15.40;9.43;;;;;;;;;;5063754;28;20615;-69
2022/04/14 05:27:32;;;;;;;12.87;8.63;;;;;;;;;;5065675;28;20202;-70
2022/04/14 05:29:59;;;;;;;15.00;8.90;;;;;;;;;;5063612;28;20251;-69
2022/04/14 05:32:26;;;;;;;12.53;9.27;;;;;;;;;;5062019;28;20206;-69
2022/04/14 05:34:55;;;;;;;13.10;9.33;;;;;;;;;;5065560;28;20670;-68
2022/04/14 05:37:23;;;;;;;12.57;9.63;;;;;;;;;;5065617;28;20194;-69
2022/04/14 05:39:50;;;;;;;12.37;9.97;;;;;;;;;;5056966;28;20209;-69
2022/04/14 05:42:17;;;;;;;11.33;9.30;;;;;;;;;;5060929;28;20320;-68
2022/04/14 05:44:44;;;;;;;15.27;9.07;;;;;;;;;;5042603;28;20232;-69
2022/04/14 05:47:11;;;;;;;12.60;8.63;;;;;;;;;;5066156;28;20205;-69
2022/04/14 05:49:38;;;;;;;12.37;9.10;;;;;;;;;;5063793;28;20256;-69
2022/04/14 05:52:06;;;;;;;11.37;8.33;;;;;;;;;;5048335;28;20646;-69
2022/04/14 05:54:33;;;;;;;11.53;8.37;;;;;;;;;;5065913;28;20197;-68
2022/04/14 05:57:00;;;;;;;11.27;8.50;;;;;;;;;;5062862;28;20201;-68
2022/04/14 05:59:27;;;;;;;12.07;9.13;;;;;;;;;;5066588;28;20243;-69
2022/04/14 06:01:54;;;;;;;10.03;8.30;;;;;;;;;;5062574;28;20663;-70
2022/04/14 06:04:23;;;;;;;13.00;8.67;;;;;;;;;;5065926;28;20237;-69
2022/04/14 06:06:53;;;;;;;11.80;8.03;;;;;;;;;;5066105;28;20580;-69
2022/04/14 06:09:22;;;;;;;10.20;8.43;;;;;;;;;;5062705;28;20241;-69
2022/04/14 06:11:49;;;;;;;12.37;8.50;;;;;;;;;;5044877;28;20216;-69
2022/04/14 06:14:16;;;;;;;9.60;8.53;;;;;;;;;;5065500;28;20198;-69
2022/04/14 06:16:43;;;;;;;10.20;7.60;;;;;;;;;;5063403;28;20193;-69
2022/04/14 06:19:11;;;;;;;8.70;7.23;;;;;;;;;;5046320;28;20228;-69
2022/04/14 06:21:38;;;;;;;9.60;7.93;;;;;;;;;;5055696;28;20206;-69
2022/04/14 06:24:05;;;;;;;9.97;8.03;;;;;;;;;;5046849;28;20216;-69
2022/04/14 06:26:33;;;;;;;9.23;8.23;;;;;;;;;;5054428;28;20631;-69
2022/04/14 06:29:00;;;;;;;8.40;7.37;;;;;;;;;;5040300;28;20198;-69
2022/04/14 06:31:27;;;;;;;8.67;7.77;;;;;;;;;;5082000;28;20196;-69
2022/04/14 06:33:54;;;;;;;8.63;7.33;;;;;;;;;;5062682;28;20220;-69
2022/04/14 06:36:22;;;;;;;10.80;8.00;;;;;;;;;;5066164;28;20212;-69
2022/04/14 06:38:49;;;;;;;8.87;7.97;;;;;;;;;;5066537;28;20730;-69
2022/04/14 06:41:16;;;;;;;8.23;6.93;;;;;;;;;;5066990;28;20585;-68
2022/04/14 06:43:45;;;;;;;11.80;7.40;;;;;;;;;;5060630;28;20213;-68
2022/04/14 06:46:12;;;;;;;15.67;8.77;;;;;;;;;;5070336;28;20196;-68
2022/04/14 06:48:44;;;;;;;47.47;14.43;;;;;;;;;;5063519;28;20577;-66
2022/04/14 06:51:12;;;;;;;34.13;12.37;;;;;;;;;;5026927;28;20852;-68
2022/04/14 06:53:43;;;;;;;24.17;11.17;;;;;;;;;;5050525;28;20688;-66
2022/04/14 06:56:10;;;;;;;28.80;10.83;;;;;;;;;;5066165;28;20217;-67
2022/04/14 06:58:38;;;;;;;24.83;10.43;;;;;;;;;;5070175;28;20201;-67
2022/04/14 07:01:05;;;;;;;36.13;10.93;;;;;;;;;;5064058;28;20236;-65
2022/04/14 07:03:32;;;;;;;25.57;10.63;;;;;;;;;;5041620;28;20214;-64
2022/04/14 07:06:00;;;;;;;23.07;10.77;;;;;;;;;;5060014;28;20259;-65
2022/04/14 07:08:28;;;;;;;19.33;9.53;;;;;;;;;;5065896;28;20259;-67
2022/04/14 07:10:55;;;;;;;22.17;12.07;;;;;;;;;;5069675;28;20228;-66
2022/04/14 07:13:22;;;;;;;20.90;11.97;;;;;;;;;;5069431;28;20686;-64
2022/04/14 07:15:49;;;;;;;18.80;12.03;;;;;;;;;;5066909;28;20594;-65
2022/04/14 07:18:17;;;;;;;17.80;12.70;;;;;;;;;;5068270;28;20204;-67
2022/04/14 07:20:46;;;;;;;16.53;12.83;;;;;;;;;;5061629;28;20215;-65
2022/04/14 07:23:13;;;;;;;16.00;13.03;;;;;;;;;;5062768;28;20221;-65
2022/04/14 07:25:40;;;;;;;16.10;13.77;;;;;;;;;;5049092;28;20197;-64
2022/04/14 07:28:08;;;;;;;21.97;13.47;;;;;;;;;;5068527;28;20201;-66
2022/04/14 07:30:35;;;;;;;20.53;13.20;;;;;;;;;;5048956;28;20686;-67
2022/04/14 07:33:02;;;;;;;16.20;13.77;;;;;;;;;;5043474;28;20198;-65
2022/04/14 07:35:30;;;;;;;16.77;13.53;;;;;;;;;;5068551;28;20526;-66
2022/04/14 07:37:57;;;;;;;18.67;13.83;;;;;;;;;;5066309;28;20270;-65
2022/04/14 07:40:25;;;;;;;19.23;13.30;;;;;;;;;;5068440;28;20205;-65
2022/04/14 07:42:52;;;;;;;18.63;13.13;;;;;;;;;;5068950;28;20205;-65
2022/04/14 07:45:19;;;;;;;16.87;13.70;;;;;;;;;;5046871;28;20631;-65
2022/04/14 07:47:46;;;;;;;18.23;13.80;;;;;;;;;;5063956;28;20194;-65
2022/04/14 07:50:15;;;;;;;17.57;14.07;;;;;;;;;;5068045;28;20189;-66
2022/04/14 07:52:51;;;;;;;21.77;14.73;;;;;;;;;;5068945;28;20213;-66
2022/04/14 07:55:23;;;;;;;17.73;13.50;;;;;;;;;;5067612;28;20522;-65
2022/04/14 07:57:51;;;;;;;18.70;13.40;;;;;;;;;;5056308;28;20209;-66
2022/04/14 08:00:18;;;;;;;19.63;12.80;;;;;;;;;;5068262;28;20181;-64
2022/04/14 08:02:48;;;;;;;15.87;12.67;;;;;;;;;;5068799;28;20263;-65
2022/04/14 08:05:16;;;;;;;13.13;11.83;;;;;;;;;;5068347;28;20279;-65
2022/04/14 08:07:43;;;;;;;14.57;11.10;;;;;;;;;;5078713;28;20189;-66
2022/04/14 08:10:10;;;;;;;14.93;11.80;;;;;;;;;;5054569;28;20201;-66
2022/04/14 08:12:38;;;;;;;12.03;10.67;;;;;;;;;;5043756;28;20198;-66
2022/04/14 08:15:05;;;;;;;12.20;10.90;;;;;;;;;;5073716;28;20926;-65
2022/04/14 08:17:33;;;;;;;13.17;10.97;;;;;;;;;;5081602;28;20202;-66
2022/04/14 08:20:00;;;;;;;11.77;10.43;;;;;;;;;;5044342;28;20208;-65
2022/04/14 08:22:27;;;;;;;11.83;10.40;;;;;;;;;;5064318;28;20271;-65
2022/04/14 08:24:54;;;;;;;12.13;10.10;;;;;;;;;;5067020;28;20237;-65
2022/04/14 08:27:22;;;;;;;11.80;10.13;;;;;;;;;;5066067;28;20615;-65
2022/04/14 08:29:49;;;;;;;10.73;9.30;;;;;;;;;;5067547;28;20201;-66
2022/04/14 08:32:16;;;;;;;10.13;8.83;;;;;;;;;;5050066;28;20553;-65
2022/04/14 08:34:45;;;;;;;10.43;9.33;;;;;;;;;;5063905;28;20283;-66
2022/04/14 08:37:12;;;;;;;10.00;9.00;;;;;;;;;;5067720;28;20193;-68
2022/04/14 08:39:40;;;;;;;10.73;9.63;;;;;;;;;;5063311;28;20607;-67
2022/04/14 08:42:13;;;;;;;10.53;9.47;;;;;;;;;;5048520;28;20193;-67
2022/04/14 08:44:46;;;;;;;10.07;9.07;;;;;;;;;;5067730;28;20745;-65
2022/04/14 08:47:15;;;;;;;8.67;7.77;;;;;;;;;;5063740;28;20209;-65
2022/04/14 08:49:44;;;;;;;11.37;8.13;;;;;;;;;;5063424;28;20193;-66
2022/04/14 08:52:15;;;;;;;8.40;7.50;;;;;;;;;;5051764;28;20988;-66
2022/04/14 08:54:46;;;;;;;9.17;7.47;;;;;;;;;;5067832;28;20217;-66
2022/04/14 08:57:13;;;;;;;8.00;6.73;;;;;;;;;;5068522;28;20277;-66
2022/04/14 08:59:45;;;;;;;9.00;7.00;;;;;;;;;;5041806;28;20237;-65
2022/04/14 09:02:17;;;;;;;10.90;6.53;;;;;;;;;;5070524;28;20197;-66
2022/04/14 09:04:45;;;;;;;8.77;7.47;;;;;;;;;;5067185;28;20216;-66
2022/04/14 09:07:12;;;;;;;7.17;6.47;;;;;;;;;;5073582;28;20216;-66
2022/04/14 09:09:40;;;;;;;10.30;7.03;;;;;;;;;;5085428;28;20197;-69
2022/04/14 09:12:07;;;;;;;8.10;6.27;;;;;;;;;;5065055;28;20206;-69
2022/04/14 09:14:34;;;;;;;6.90;5.67;;;;;;;;;;5066620;28;20696;-68
2022/04/14 09:17:02;;;;;;;10.20;6.00;;;;;;;;;;5067679;28;20617;-68
2022/04/14 09:19:32;;;;;;;6.70;5.97;;;;;;;;;;5066672;28;20202;-69
2022/04/14 09:22:01;;;;;;;6.63;6.03;;;;;;;;;;5060832;28;21414;-68
2022/04/14 09:24:49;;;;;;;6.33;5.43;;;;;;;;;;5066377;28;20746;-68
2022/04/14 09:27:27;;;;;;;7.00;5.77;;;;;;;;;;5048336;28;20220;-69
2022/04/14 09:29:55;;;;;;;7.30;6.20;;;;;;;;;;5062941;28;20670;-67
2022/04/14 09:32:32;;;;;;;9.03;5.87;;;;;;;;;;5066192;28;20201;-66
2022/04/14 09:35:00;;;;;;;7.97;5.70;;;;;;;;;;5044569;28;20563;-67
2022/04/14 09:37:28;;;;;;;6.30;5.47;;;;;;;;;;5064195;28;20186;-66
2022/04/14 09:40:03;;;;;;;7.90;5.90;;;;;;;;;;5059451;28;20507;-66
2022/04/14 09:42:31;;;;;;;6.90;6.00;;;;;;;;;;5064605;28;20216;-69
2022/04/14 09:45:18;;;;;;;7.77;5.87;;;;;;;;;;5060964;28;20221;-66
2022/04/14 09:48:04;;;;;;;7.07;5.70;;;;;;;;;;5048891;28;20213;-66
2022/04/14 09:50:34;;;;;;;6.60;5.80;;;;;;;;;;5066834;28;20691;-67
2022/04/14 09:53:08;;;;;;;6.23;5.50;;;;;;;;;;5074542;28;20193;-67
2022/04/14 09:55:37;;;;;;;6.07;5.43;;;;;;;;;;5061188;28;20204;-68
2022/04/14 09:58:05;;;;;;;7.33;4.67;;;;;;;;;;5064130;28;20562;-68
2022/04/14 10:00:43;;;;;;;7.80;4.80;;;;;;;;;;5072901;28;20611;-68
2022/04/14 10:03:11;;;;;;;6.50;5.37;;;;;;;;;;5062697;28;20585;-67
2022/04/14 10:05:40;;;;;;;7.07;4.90;;;;;;;;;;5042612;28;20695;-67
2022/04/14 10:08:08;;;;;;;5.10;4.60;;;;;;;;;;5071587;28;20607;-66
2022/04/14 10:10:36;;;;;;;5.40;4.10;;;;;;;;;;5058802;28;20210;-67
2022/04/14 10:13:07;;;;;;;5.57;4.37;;;;;;;;;;5066457;28;20271;-67
2022/04/14 10:15:39;;;;;;;6.70;4.70;;;;;;;;;;5047254;28;20461;-65
2022/04/14 10:18:07;;;;;;;5.67;4.70;;;;;;;;;;5065505;28;20300;-65
2022/04/14 10:20:38;;;;;;;5.30;4.00;;;;;;;;;;5068418;28;20320;-65
2022/04/14 10:23:07;;;;;;;4.80;4.40;;;;;;;;;;5067101;28;20217;-64
2022/04/14 10:25:38;;;;;;;5.67;3.93;;;;;;;;;;5072155;28;20477;-65
2022/04/14 10:28:08;;;;;;;5.03;3.80;;;;;;;;;;5065305;28;20198;-65
2022/04/14 10:30:35;;;;;;;4.20;3.73;;;;;;;;;;5069978;28;20190;-65
2022/04/14 10:33:03;;;;;;;6.77;3.40;;;;;;;;;;5051320;28;20205;-65
2022/04/14 10:35:31;;;;;;;5.47;3.47;;;;;;;;;;5064297;28;20237;-65
2022/04/14 10:38:31;;;;;;;5.37;4.10;;;;;;;;;;5064573;28;20275;-64
2022/04/14 10:41:04;;;;;;;4.03;3.33;;;;;;;;;;5008688;28;20213;-65
2022/04/14 10:43:34;;;;;;;3.93;3.50;;;;;;;;;;5050114;28;20731;-65
2022/04/14 10:46:01;;;;;;;4.67;3.40;;;;;;;;;;5048916;28;20251;-65
2022/04/14 10:48:45;;;;;;;4.90;3.27;;;;;;;;;;5092161;28;20618;-67
2022/04/14 10:51:23;;;;;;;3.87;3.10;;;;;;;;;;5073549;28;20194;-66
2022/04/14 10:53:52;;;;;;;3.87;2.70;;;;;;;;;;5074598;28;20204;-66
2022/04/14 10:56:34;;;;;;;3.03;2.73;;;;;;;;;;5068038;28;20262;-65
2022/04/14 10:59:05;;;;;;;4.17;3.73;;;;;;;;;;5045273;28;20389;-65
2022/04/14 11:01:48;;;;;;;3.80;3.40;;;;;;;;;;5068319;28;20205;-65
2022/04/14 11:04:26;;;;;;;7.90;3.20;;;;;;;;;;5064798;28;20239;-66
2022/04/14 11:07:12;;;;;;;4.00;3.10;;;;;;;;;;5065614;28;20228;-68
2022/04/14 11:09:42;;;;;;;4.10;3.13;;;;;;;;;;5063972;28;20248;-66
2022/04/14 11:12:13;;;;;;;3.87;2.83;;;;;;;;;;5064830;28;20211;-68
2022/04/14 11:14:45;;;;;;;2.87;2.53;;;;;;;;;;5065678;28;20275;-71
2022/04/14 11:17:48;;;;;;;3.30;2.30;;;;;;;;;;5064604;28;20194;-68
2022/04/14 11:20:22;;;;;;;3.20;2.60;;;;;;;;;;5001949;28;20199;-69
2022/04/14 11:23:06;;;;;;;2.70;2.30;;;;;;;;;;5036881;28;20221;-67
2022/04/14 11:25:41;;;;;;;3.97;2.37;;;;;;;;;;5065704;28;20531;-66
2022/04/14 11:28:20;;;;;;;3.20;2.50;;;;;;;;;;5064096;28;20185;-65
2022/04/14 11:30:59;;;;;;;4.73;2.57;;;;;;;;;;5065414;28;20197;-67
2022/04/14 11:33:31;;;;;;;6.77;2.67;;;;;;;;;;5046826;28;20193;-69
2022/04/14 11:36:11;;;;;;;5.23;3.60;;;;;;;;;;5041576;28;20193;-67
2022/04/14 11:38:52;;;;;;;3.70;3.10;;;;;;;;;;5067376;28;20205;-68
2022/04/14 11:41:38;;;;;;;3.60;3.27;;;;;;;;;;5046068;28;20260;-68
2022/04/14 11:44:12;;;;;;;4.67;3.53;;;;;;;;;;5065442;28;20655;-67
2022/04/14 11:46:40;;;;;;;4.03;3.20;;;;;;;;;;5064778;28;20279;-68
2022/04/14 11:49:09;;;;;;;4.00;2.83;;;;;;;;;;5075051;28;20243;-68
2022/04/14 11:51:43;;;;;;;3.47;2.70;;;;;;;;;;5066908;28;20384;-67
2022/04/14 11:54:11;;;;;;;3.23;2.87;;;;;;;;;;5038524;28;20254;-67
2022/04/14 11:57:31;;;;;;;4.33;2.97;;;;;;;;;;5067970;28;20201;-66
2022/04/14 12:00:10;;;;;;;4.90;3.17;;;;;;;;;;5059220;28;21235;-66
2022/04/14 12:02:38;;;;;;;4.37;3.00;;;;;;;;;;5068669;28;20683;-66
2022/04/14 12:05:05;;;;;;;5.80;3.20;;;;;;;;;;5061830;28;20225;-67
2022/04/14 12:07:35;;;;;;;6.00;2.90;;;;;;;;;;5072756;28;20222;-65
2022/04/14 12:10:07;;;;;;;3.50;3.20;;;;;;;;;;5059572;28;20194;-66
2022/04/14 12:12:37;;;;;;;3.80;3.50;;;;;;;;;;5068166;28;20845;-65
2022/04/14 12:15:05;;;;;;;3.77;2.33;;;;;;;;;;5062787;28;20206;-66
2022/04/14 12:17:35;;;;;;;6.07;2.80;;;;;;;;;;5068087;28;20697;-69
2022/04/14 12:20:05;;;;;;;2.40;2.13;;;;;;;;;;5058359;28;20211;-68
2022/04/14 12:22:34;;;;;;;3.43;2.10;;;;;;;;;;5062363;28;20213;-68
2022/04/14 12:25:02;;;;;;;3.40;2.03;;;;;;;;;;5068736;28;20236;-68
2022/04/14 12:27:34;;;;;;;3.33;2.27;;;;;;;;;;5068190;28;20186;-69
2022/04/14 12:30:08;;;;;;;15.23;2.87;;;;;;;;;;5065222;28;20275;-69
2022/04/14 12:32:36;;;;;;;3.33;2.40;;;;;;;;;;5067887;28;20705;-67
2022/04/14 12:35:06;;;;;;;5.93;2.43;;;;;;;;;;5060769;28;20631;-68
2022/04/14 12:37:35;;;;;;;4.80;2.30;;;;;;;;;;5072484;28;20198;-67
2022/04/14 12:40:10;;;;;;;6.97;2.80;;;;;;;;;;5056716;28;20198;-66
2022/04/14 12:42:39;;;;;;;4.33;2.40;;;;;;;;;;5060644;28;20189;-66
2022/04/14 12:45:07;;;;;;;10.07;2.23;;;;;;;;;;5051180;28;20206;-67
2022/04/14 12:47:34;;;;;;;6.17;2.10;;;;;;;;;;5046322;28;20213;-66
2022/04/14 12:50:02;;;;;;;7.80;2.17;;;;;;;;;;5040582;28;20220;-68
2022/04/14 12:52:30;;;;;;;3.07;1.93;;;;;;;;;;5052359;28;20222;-68
2022/04/14 12:54:58;;;;;;;1.90;1.63;;;;;;;;;;5068426;28;20190;-65
2022/04/14 12:57:26;;;;;;;2.73;1.93;;;;;;;;;;5066984;28;20197;-68
2022/04/14 13:00:01;;;;;;;2.53;1.47;;;;;;;;;;5060859;28;20244;-67
2022/04/14 13:02:28;;;;;;;3.70;1.30;;;;;;;;;;5067159;28;20201;-66
2022/04/14 13:05:06;;;;;;;2.87;1.40;;;;;;;;;;5048975;28;20198;-67
2022/04/14 13:07:51;;;;;;;3.90;2.10;;;;;;;;;;5075533;28;20185;-65
2022/04/14 13:10:34;;;;;;;2.80;2.47;;;;;;;;;;5062435;28;20251;-65
2022/04/14 13:13:02;;;;;;;3.87;2.27;;;;;;;;;;5062393;28;20190;-65
2022/04/14 13:15:29;;;;;;;5.03;2.90;;;;;;;;;;5051312;28;20216;-66
2022/04/14 13:18:02;;;;;;;4.47;2.53;;;;;;;;;;5071740;28;20205;-68
2022/04/14 13:20:36;;;;;;;3.00;2.30;;;;;;;;;;5058700;28;20202;-67
2022/04/14 13:23:10;;;;;;;4.30;2.03;;;;;;;;;;5070243;28;20217;-67
2022/04/14 13:25:38;;;;;;;3.77;2.60;;;;;;;;;;5048680;28;20214;-69
2022/04/14 13:28:09;;;;;;;3.27;2.60;;;;;;;;;;5061065;28;20187;-68
2022/04/14 13:30:40;;;;;;;4.67;2.60;;;;;;;;;;5065594;28;20222;-68
2022/04/14 13:33:09;;;;;;;3.10;2.63;;;;;;;;;;5063565;28;20202;-69
2022/04/14 13:35:38;;;;;;;5.73;3.00;;;;;;;;;;5025528;28;20551;-67
2022/04/14 13:38:07;;;;;;;3.50;2.33;;;;;;;;;;5048471;28;20763;-68
2022/04/14 13:40:38;;;;;;;4.07;2.70;;;;;;;;;;5063918;28;20194;-67
2022/04/14 13:43:08;;;;;;;3.80;2.40;;;;;;;;;;5064240;28;20205;-68
2022/04/14 13:45:37;;;;;;;6.07;3.00;;;;;;;;;;5063831;28;20210;-66
2022/04/14 13:48:07;;;;;;;6.80;2.83;;;;;;;;;;5066378;28;20532;-66
2022/04/14 13:50:43;;;;;;;3.83;2.43;;;;;;;;;;5065393;28;20193;-67
2022/04/14 13:53:31;;;;;;;3.57;2.67;;;;;;;;;;5062716;28;20564;-67
2022/04/14 13:56:11;;;;;;;3.53;2.97;;;;;;;;;;5062231;28;20190;-66
2022/04/14 13:58:44;;;;;;;7.27;3.73;;;;;;;;;;5060891;28;20599;-68
2022/04/14 14:01:15;;;;;;;5.47;3.50;;;;;;;;;;5043327;28;20229;-66
2022/04/14 14:03:49;;;;;;;7.60;3.90;;;;;;;;;;5061434;28;20280;-68
2022/04/14 14:06:19;;;;;;;10.87;3.97;;;;;;;;;;5045012;28;20230;-66
2022/04/14 14:08:46;;;;;;;9.57;4.10;;;;;;;;;;5070452;28;20201;-68
2022/04/14 14:11:20;;;;;;;6.10;3.60;;;;;;;;;;5070603;28;20212;-68
2022/04/14 14:13:53;;;;;;;10.97;4.70;;;;;;;;;;5050402;28;20192;-68
2022/04/14 14:16:25;;;;;;;8.47;4.83;;;;;;;;;;5066456;28;20206;-67
2022/04/14 14:18:54;;;;;;;8.20;3.57;;;;;;;;;;5068053;28;20189;-67
2022/04/14 14:21:28;;;;;;;4.93;3.73;;;;;;;;;;5077198;28;20211;-66
2022/04/14 14:24:02;;;;;;;4.83;3.53;;;;;;;;;;5048042;28;20202;-67
2022/04/14 14:26:31;;;;;;;10.30;3.63;;;;;;;;;;5067216;28;20209;-66
2022/04/14 14:28:59;;;;;;;4.70;3.23;;;;;;;;;;5067996;28;20211;-66
2022/04/14 14:31:31;;;;;;;10.07;2.67;;;;;;;;;;5033015;28;20202;-66
2022/04/14 14:34:04;;;;;;;4.17;2.77;;;;;;;;;;5058783;28;20186;-66
2022/04/14 14:36:36;;;;;;;5.07;2.60;;;;;;;;;;5047498;28;20208;-66
2022/04/14 14:39:06;;;;;;;7.10;3.20;;;;;;;;;;5065609;28;20213;-66
2022/04/14 14:41:38;;;;;;;6.60;2.93;;;;;;;;;;5065040;28;20204;-66
2022/04/14 14:44:09;;;;;;;5.47;3.60;;;;;;;;;;5061059;28;20199;-65
2022/04/14 14:46:37;;;;;;;6.90;3.10;;;;;;;;;;5062272;28;20341;-65
2022/04/14 14:49:09;;;;;;;4.33;2.97;;;;;;;;;;5064471;28;20538;-64
2022/04/14 14:51:37;;;;;;;8.27;3.87;;;;;;;;;;5064862;28;20197;-65
2022/04/14 14:54:07;;;;;;;6.17;3.63;;;;;;;;;;5063526;28;20194;-66